createdAt,value
2019-05-19T00:00:50.591Z,14.63
2019-05-19T00:01:50.582Z,14.63
2019-05-19T00:02:50.605Z,14.58
2019-05-19T00:03:50.576Z,14.55
2019-05-19T00:04:50.541Z,14.56
2019-05-19T00:05:50.519Z,14.49
2019-05-19T00:06:50.560Z,14.49
2019-05-19T00:07:50.494Z,14.48
2019-05-19T00:08:50.484Z,14.51
2019-05-19T00:09:50.467Z,14.51
2019-05-19T00:10:50.457Z,14.52
2019-05-19T00:11:50.484Z,14.40
2019-05-19T00:12:50.429Z,14.44
2019-05-19T00:13:50.418Z,14.44
2019-05-19T00:14:50.408Z,14.52
2019-05-19T00:15:50.399Z,14.41
2019-05-19T00:16:50.429Z,14.36
2019-05-19T00:17:50.396Z,14.37
2019-05-19T00:18:50.368Z,14.33
2019-05-19T00:19:50.351Z,14.38
2019-05-19T00:20:50.344Z,14.31
2019-05-19T00:21:50.357Z,14.22
2019-05-19T00:22:50.315Z,14.30
2019-05-19T00:23:50.328Z,14.22
2019-05-19T00:24:50.300Z,14.22
2019-05-19T00:25:50.286Z,14.19
2019-05-19T00:26:50.296Z,14.23
2019-05-19T00:27:50.267Z,14.18
2019-05-19T00:28:50.254Z,14.27
2019-05-19T00:29:50.261Z,14.22
2019-05-19T00:30:50.226Z,14.23
2019-05-19T00:31:50.250Z,14.28
2019-05-19T00:32:50.206Z,14.26
2019-05-19T00:33:50.192Z,14.22
2019-05-19T00:34:50.207Z,14.31
2019-05-19T00:35:50.190Z,14.26
2019-05-19T00:36:50.191Z,14.22
2019-05-19T00:37:50.152Z,14.27
2019-05-19T00:38:50.172Z,14.19
2019-05-19T00:39:50.147Z,14.19
2019-05-19T00:40:50.142Z,14.21
2019-05-19T00:41:50.105Z,14.16
2019-05-19T00:42:50.140Z,14.21
2019-05-19T00:43:50.108Z,14.26
2019-05-19T00:44:50.101Z,14.21
2019-05-19T00:45:50.080Z,14.26
2019-05-19T00:46:50.072Z,14.11
2019-05-19T00:47:50.085Z,14.13
2019-05-19T00:48:50.064Z,14.18
2019-05-19T00:49:50.050Z,14.13
2019-05-19T00:50:50.039Z,14.13
2019-05-19T00:51:50.023Z,14.26
2019-05-19T00:52:50.035Z,14.23
2019-05-19T00:53:50.008Z,14.12
2019-05-19T00:54:49.959Z,14.16
2019-05-19T00:55:49.950Z,14.13
2019-05-19T00:56:49.937Z,14.13
2019-05-19T00:57:49.941Z,14.15
2019-05-19T00:58:49.914Z,14.09
2019-05-19T00:59:49.918Z,14.11
2019-05-19T01:00:49.896Z,14.11
2019-05-19T01:01:49.891Z,14.04
2019-05-19T01:02:49.895Z,14.00
2019-05-19T01:03:49.867Z,14.05
2019-05-19T01:04:49.841Z,13.98
2019-05-19T01:05:49.840Z,14.01
2019-05-19T01:06:49.836Z,14.01
2019-05-19T01:07:49.833Z,14.01
2019-05-19T01:08:49.809Z,13.93
2019-05-19T01:09:49.791Z,13.98
2019-05-19T01:10:49.781Z,13.94
2019-05-19T01:11:49.784Z,13.97
2019-05-19T01:12:49.788Z,13.80
2019-05-19T01:13:49.747Z,13.78
2019-05-19T01:14:49.736Z,13.79
2019-05-19T01:15:49.726Z,13.76
2019-05-19T01:16:49.711Z,13.78
2019-05-19T01:17:49.764Z,13.80
2019-05-19T01:18:49.695Z,13.75
2019-05-19T01:19:56.024Z,13.76
2019-05-19T01:20:50.667Z,13.80
2019-05-19T01:21:49.659Z,13.73
2019-05-19T01:22:49.684Z,13.72
2019-05-19T01:23:49.653Z,13.71
2019-05-19T01:24:49.629Z,13.67
2019-05-19T01:25:49.615Z,13.75
2019-05-19T01:26:49.599Z,13.68
2019-05-19T01:27:49.632Z,13.71
2019-05-19T01:28:49.610Z,13.72
2019-05-19T01:29:49.583Z,13.75
2019-05-19T01:30:49.583Z,13.71
2019-05-19T01:31:49.546Z,13.72
2019-05-19T01:32:49.554Z,13.73
2019-05-19T01:33:49.524Z,13.79
2019-05-19T01:34:49.511Z,13.80
2019-05-19T01:35:49.512Z,13.71
2019-05-19T01:36:49.485Z,13.72
2019-05-19T01:37:49.493Z,13.75
2019-05-19T01:38:49.475Z,13.79
2019-05-19T01:39:49.456Z,13.76
2019-05-19T01:40:49.462Z,13.79
2019-05-19T01:41:49.432Z,13.71
2019-05-19T01:42:49.467Z,13.75
2019-05-19T01:43:49.410Z,13.68
2019-05-19T01:44:49.392Z,13.63
2019-05-19T01:45:49.385Z,13.61
2019-05-19T01:46:49.395Z,13.68
2019-05-19T01:47:49.411Z,13.53
2019-05-19T01:48:49.358Z,13.64
2019-05-19T01:49:49.344Z,13.60
2019-05-19T01:50:49.336Z,13.51
2019-05-19T01:51:49.317Z,13.55
2019-05-19T01:52:49.392Z,13.43
2019-05-19T01:53:49.299Z,13.27
2019-05-19T01:54:49.286Z,13.26
2019-05-19T01:55:49.277Z,13.24
2019-05-19T01:56:49.284Z,13.13
2019-05-19T01:57:49.260Z,13.19
2019-05-19T01:58:49.296Z,13.14
2019-05-19T01:59:49.227Z,13.06
2019-05-19T02:00:49.217Z,13.06
2019-05-19T02:01:49.208Z,13.05
2019-05-19T02:02:49.194Z,13.05
2019-05-19T02:03:49.211Z,13.05
2019-05-19T02:04:49.192Z,13.06
2019-05-19T02:05:49.166Z,13.08
2019-05-19T02:06:49.151Z,13.09
2019-05-19T02:07:49.143Z,13.20
2019-05-19T02:08:49.146Z,13.21
2019-05-19T02:09:49.121Z,13.24
2019-05-19T02:10:49.125Z,13.26
2019-05-19T02:11:49.131Z,13.21
2019-05-19T02:12:49.096Z,13.27
2019-05-19T02:13:49.097Z,13.32
2019-05-19T02:14:49.095Z,13.39
2019-05-19T02:15:49.108Z,13.40
2019-05-19T02:16:49.056Z,13.26
2019-05-19T02:17:49.041Z,13.29
2019-05-19T02:18:49.094Z,13.23
2019-05-19T02:19:49.094Z,13.14
2019-05-19T02:20:48.998Z,13.11
2019-05-19T02:21:48.991Z,13.01
2019-05-19T02:22:49.005Z,12.96
2019-05-19T02:23:48.965Z,12.91
2019-05-19T02:24:49.002Z,12.84
2019-05-19T02:25:48.944Z,12.80
2019-05-19T02:26:48.929Z,12.87
2019-05-19T02:27:48.915Z,12.95
2019-05-19T02:28:48.912Z,12.93
2019-05-19T02:29:48.945Z,12.90
2019-05-19T02:30:48.915Z,12.90
2019-05-19T02:31:48.870Z,12.99
2019-05-19T02:32:48.864Z,13.01
2019-05-19T02:33:48.869Z,13.01
2019-05-19T02:34:48.886Z,13.06
2019-05-19T02:35:48.863Z,13.13
2019-05-19T02:36:48.848Z,13.11
2019-05-19T02:37:48.825Z,13.17
2019-05-19T02:38:48.875Z,13.16
2019-05-19T02:39:48.806Z,13.16
2019-05-19T02:40:48.772Z,13.16
2019-05-19T02:41:48.763Z,13.24
2019-05-19T02:42:48.756Z,13.23
2019-05-19T02:43:48.738Z,13.21
2019-05-19T02:44:48.761Z,13.24
2019-05-19T02:45:48.715Z,13.24
2019-05-19T02:46:48.704Z,13.29
2019-05-19T02:47:48.754Z,13.24
2019-05-19T02:48:48.689Z,13.27
2019-05-19T02:49:48.717Z,13.23
2019-05-19T02:50:52.625Z,13.11
2019-05-19T02:51:48.649Z,13.16
2019-05-19T02:52:48.657Z,13.13
2019-05-19T02:53:48.629Z,13.17
2019-05-19T02:54:48.650Z,13.17
2019-05-19T02:55:48.609Z,13.08
2019-05-19T02:56:48.613Z,13.09
2019-05-19T02:57:48.592Z,13.13
2019-05-19T02:58:48.588Z,13.09
2019-05-19T02:59:48.585Z,13.04
2019-05-19T03:02:04.455Z,13.05
2019-05-19T03:03:04.459Z,13.04
2019-05-19T03:04:04.406Z,12.98
2019-05-19T03:05:04.409Z,13.01
2019-05-19T03:06:04.379Z,13.01
2019-05-19T03:07:04.370Z,13.02
2019-05-19T03:08:04.351Z,13.02
2019-05-19T03:09:04.359Z,13.01
2019-05-19T03:10:04.385Z,13.01
2019-05-19T03:11:04.323Z,13.01
2019-05-19T03:12:04.324Z,13.09
2019-05-19T03:13:04.300Z,13.02
2019-05-19T03:14:04.296Z,13.05
2019-05-19T03:15:04.293Z,13.09
2019-05-19T03:16:04.259Z,13.05
2019-05-19T03:17:04.265Z,13.01
2019-05-19T03:18:04.236Z,13.04
2019-05-19T03:19:04.223Z,13.02
2019-05-19T03:20:04.280Z,13.02
2019-05-19T03:21:10.940Z,12.93
2019-05-19T03:22:05.194Z,12.96
2019-05-19T03:23:04.189Z,12.88
2019-05-19T03:24:04.171Z,12.87
2019-05-19T03:25:04.190Z,12.84
2019-05-19T03:26:04.155Z,12.79
2019-05-19T03:27:04.135Z,12.83
2019-05-19T03:28:04.158Z,12.93
2019-05-19T03:29:04.133Z,12.87
2019-05-19T03:30:04.130Z,12.87
2019-05-19T03:31:04.093Z,12.88
2019-05-19T03:32:11.274Z,12.91
2019-05-19T03:33:05.243Z,12.80
2019-05-19T03:34:04.074Z,12.79
2019-05-19T03:35:04.101Z,12.72
2019-05-19T03:36:04.034Z,12.55
2019-05-19T03:37:04.022Z,12.65
2019-05-19T03:38:04.017Z,12.63
2019-05-19T03:39:04.007Z,12.59
2019-05-19T03:40:04.032Z,12.65
2019-05-19T03:41:03.986Z,12.63
2019-05-19T03:42:04.064Z,12.65
2019-05-19T03:43:03.958Z,12.63
2019-05-19T03:44:03.953Z,12.66
2019-05-19T03:45:03.935Z,12.69
2019-05-19T03:46:03.961Z,12.68
2019-05-19T03:47:03.919Z,12.73
2019-05-19T03:48:03.908Z,12.65
2019-05-19T03:49:03.889Z,12.69
2019-05-19T03:50:03.876Z,12.77
2019-05-19T03:51:03.896Z,12.72
2019-05-19T03:52:03.865Z,12.73
2019-05-19T03:53:03.850Z,12.72
2019-05-19T03:54:03.845Z,12.68
2019-05-19T03:55:03.824Z,12.69
2019-05-19T03:56:03.830Z,12.71
2019-05-19T03:57:03.803Z,12.72
2019-05-19T03:58:03.810Z,12.71
2019-05-19T03:59:03.778Z,12.71
2019-05-19T04:00:03.773Z,12.69
2019-05-19T04:01:03.779Z,12.72
2019-05-19T04:02:03.751Z,12.79
2019-05-19T04:03:03.753Z,12.79
2019-05-19T04:04:03.727Z,12.87
2019-05-19T04:05:03.717Z,12.93
2019-05-19T04:06:03.722Z,12.88
2019-05-19T04:07:03.692Z,12.87
2019-05-19T04:08:03.689Z,12.91
2019-05-19T04:09:03.704Z,12.98
2019-05-19T04:10:03.675Z,12.91
2019-05-19T04:11:03.730Z,12.90
2019-05-19T04:12:03.670Z,13.01
2019-05-19T04:13:03.654Z,12.99
2019-05-19T04:14:03.611Z,13.01
2019-05-19T04:15:03.636Z,13.01
2019-05-19T04:16:03.632Z,12.95
2019-05-19T04:17:03.600Z,12.98
2019-05-19T04:18:03.594Z,13.02
2019-05-19T04:19:03.564Z,12.93
2019-05-19T04:20:03.591Z,12.88
2019-05-19T04:21:03.575Z,12.84
2019-05-19T04:22:03.527Z,12.91
2019-05-19T04:23:03.519Z,12.87
2019-05-19T04:24:03.513Z,12.99
2019-05-19T04:25:03.521Z,12.88
2019-05-19T04:26:03.475Z,12.95
2019-05-19T04:27:03.495Z,12.96
2019-05-19T04:28:03.451Z,13.02
2019-05-19T04:29:03.440Z,13.05
2019-05-19T04:30:03.471Z,13.09
2019-05-19T04:31:03.421Z,13.14
2019-05-19T04:32:03.458Z,13.09
2019-05-19T04:33:03.413Z,13.08
2019-05-19T04:34:03.391Z,13.08
2019-05-19T04:35:03.376Z,13.09
2019-05-19T04:36:03.373Z,13.17
2019-05-19T04:37:03.379Z,13.17
2019-05-19T04:38:03.346Z,13.11
2019-05-19T04:39:03.374Z,13.29
2019-05-19T04:40:03.378Z,13.19
2019-05-19T04:41:03.312Z,13.20
2019-05-19T04:42:03.322Z,13.32
2019-05-19T04:43:03.307Z,13.32
2019-05-19T04:44:03.282Z,13.38
2019-05-19T04:45:03.312Z,13.30
2019-05-19T04:46:03.258Z,13.30
2019-05-19T04:47:03.269Z,13.43
2019-05-19T04:48:03.234Z,13.43
2019-05-19T04:49:03.214Z,13.46
2019-05-19T04:50:03.213Z,13.47
2019-05-19T04:51:03.207Z,13.51
2019-05-19T04:52:07.176Z,13.57
2019-05-19T04:53:03.184Z,13.64
2019-05-19T04:54:03.167Z,13.73
2019-05-19T04:55:03.169Z,13.71
2019-05-19T04:56:03.145Z,13.68
2019-05-19T04:57:03.171Z,13.72
2019-05-19T04:58:03.122Z,13.73
2019-05-19T04:59:03.110Z,13.78
2019-05-19T05:00:03.115Z,13.76
2019-05-19T05:01:03.089Z,13.83
2019-05-19T05:02:03.106Z,13.78
2019-05-19T05:03:03.075Z,13.86
2019-05-19T05:04:03.056Z,13.97
2019-05-19T05:05:03.048Z,13.91
2019-05-19T05:06:03.036Z,13.94
2019-05-19T05:07:03.038Z,14.01
2019-05-19T05:08:03.012Z,14.05
2019-05-19T05:09:03.031Z,14.00
2019-05-19T05:10:02.988Z,14.04
2019-05-19T05:11:02.979Z,14.05
2019-05-19T05:12:03.017Z,14.15
2019-05-19T05:13:02.959Z,14.16
2019-05-19T05:14:02.958Z,14.23
2019-05-19T05:15:02.945Z,14.22
2019-05-19T05:16:02.927Z,14.26
2019-05-19T05:17:02.940Z,14.33
2019-05-19T05:18:02.904Z,14.34
2019-05-19T05:19:02.916Z,14.31
2019-05-19T05:20:02.881Z,14.38
2019-05-19T05:21:02.889Z,14.45
2019-05-19T05:22:02.880Z,14.46
2019-05-19T05:23:02.847Z,14.51
2019-05-19T05:24:02.837Z,14.51
2019-05-19T05:25:02.823Z,14.61
2019-05-19T05:26:02.833Z,14.59
2019-05-19T05:27:02.839Z,14.61
2019-05-19T05:28:02.790Z,14.69
2019-05-19T05:29:02.789Z,14.70
2019-05-19T05:30:02.764Z,14.73
2019-05-19T05:31:02.759Z,14.64
2019-05-19T05:32:02.811Z,14.73
2019-05-19T05:33:02.769Z,14.78
2019-05-19T05:34:02.730Z,14.78
2019-05-19T05:35:02.711Z,14.78
2019-05-19T05:36:02.702Z,14.79
2019-05-19T05:37:02.688Z,14.78
2019-05-19T05:38:02.696Z,14.82
2019-05-19T05:39:02.691Z,14.95
2019-05-19T05:40:02.671Z,14.85
2019-05-19T05:41:02.648Z,14.79
2019-05-19T05:42:02.653Z,14.82
2019-05-19T05:43:02.683Z,14.79
2019-05-19T05:44:02.638Z,14.78
2019-05-19T05:45:02.636Z,14.77
2019-05-19T05:46:02.595Z,14.83
2019-05-19T05:47:02.583Z,14.82
2019-05-19T05:48:02.812Z,14.92
2019-05-19T05:49:02.562Z,14.97
2019-05-19T05:50:02.577Z,14.99
2019-05-19T05:51:02.581Z,15.12
2019-05-19T05:52:02.530Z,15.15
2019-05-19T05:53:02.567Z,15.12
2019-05-19T05:54:02.533Z,15.15
2019-05-19T05:55:02.530Z,15.27
2019-05-19T05:56:02.508Z,15.30
2019-05-19T05:57:02.521Z,15.22
2019-05-19T05:58:02.514Z,15.29
2019-05-19T05:59:02.461Z,15.27
2019-05-19T06:00:02.475Z,15.38
2019-05-19T06:01:02.433Z,15.41
2019-05-19T06:02:02.421Z,15.43
2019-05-19T06:03:02.497Z,15.47
2019-05-19T06:04:02.409Z,15.45
2019-05-19T06:05:02.388Z,15.48
2019-05-19T06:06:02.423Z,15.54
2019-05-19T06:07:02.368Z,15.51
2019-05-19T06:08:02.379Z,15.59
2019-05-19T06:09:02.345Z,15.65
2019-05-19T06:10:02.353Z,15.72
2019-05-19T06:11:02.322Z,15.70
2019-05-19T06:12:02.308Z,15.73
2019-05-19T06:13:02.318Z,15.83
2019-05-19T06:14:02.291Z,15.90
2019-05-19T06:15:02.288Z,15.95
2019-05-19T06:16:02.266Z,16.00
2019-05-19T06:17:02.252Z,15.98
2019-05-19T06:18:02.244Z,15.99
2019-05-19T06:19:02.254Z,16.08
2019-05-19T06:20:02.678Z,16.13
2019-05-19T06:21:02.257Z,16.17
2019-05-19T06:22:02.225Z,16.22
2019-05-19T06:23:02.192Z,16.28
2019-05-19T06:24:02.220Z,16.28
2019-05-19T06:25:02.181Z,16.33
2019-05-19T06:26:02.149Z,16.37
2019-05-19T06:27:02.151Z,16.42
2019-05-19T06:28:02.126Z,16.44
2019-05-19T06:29:02.141Z,16.44
2019-05-19T06:30:02.110Z,16.47
2019-05-19T06:31:02.095Z,16.44
2019-05-19T06:32:02.110Z,16.61
2019-05-19T06:33:02.080Z,16.54
2019-05-19T06:34:02.097Z,16.64
2019-05-19T06:35:02.562Z,16.67
2019-05-19T06:36:02.053Z,16.72
2019-05-19T06:37:02.142Z,16.79
2019-05-19T06:38:02.480Z,16.82
2019-05-19T06:39:02.064Z,16.72
2019-05-19T06:40:02.011Z,16.90
2019-05-19T06:41:01.982Z,16.94
2019-05-19T06:42:01.986Z,16.91
2019-05-19T06:43:01.967Z,16.99
2019-05-19T06:44:03.486Z,17.01
2019-05-19T06:45:01.937Z,17.13
2019-05-19T06:46:01.930Z,17.04
2019-05-19T06:47:01.929Z,17.19
2019-05-19T06:48:01.904Z,17.25
2019-05-19T06:49:01.944Z,17.13
2019-05-19T06:50:02.194Z,17.25
2019-05-19T06:51:01.871Z,17.32
2019-05-19T06:52:01.853Z,17.35
2019-05-19T06:53:13.306Z,17.32
2019-05-19T06:54:01.862Z,17.32
2019-05-19T06:55:01.845Z,17.47
2019-05-19T06:56:01.823Z,17.41
2019-05-19T06:57:01.809Z,17.52
2019-05-19T06:58:01.818Z,17.54
2019-05-19T06:59:01.848Z,17.45
2019-05-19T07:00:01.790Z,17.46
2019-05-19T07:01:01.761Z,17.50
2019-05-19T07:02:01.767Z,17.46
2019-05-19T07:03:01.745Z,17.62
2019-05-19T07:04:01.755Z,17.65
2019-05-19T07:05:01.880Z,17.62
2019-05-19T07:06:01.721Z,17.63
2019-05-19T07:07:01.755Z,17.69
2019-05-19T07:08:01.703Z,17.63
2019-05-19T07:09:01.680Z,17.73
2019-05-19T07:10:01.799Z,17.75
2019-05-19T07:11:01.697Z,17.75
2019-05-19T07:12:01.638Z,17.76
2019-05-19T07:13:01.646Z,17.84
2019-05-19T07:14:03.067Z,17.76
2019-05-19T07:15:01.636Z,17.81
2019-05-19T07:16:01.615Z,17.86
2019-05-19T07:17:01.583Z,17.86
2019-05-19T07:18:01.620Z,17.88
2019-05-19T07:19:01.584Z,17.86
2019-05-19T07:20:01.635Z,17.83
2019-05-19T07:21:01.587Z,17.83
2019-05-19T07:22:01.559Z,17.83
2019-05-19T07:23:01.580Z,17.86
2019-05-19T07:24:01.551Z,17.84
2019-05-19T07:25:01.596Z,17.84
2019-05-19T07:26:01.479Z,17.79
2019-05-19T07:27:01.525Z,17.86
2019-05-19T07:28:01.457Z,17.87
2019-05-19T07:29:01.498Z,17.87
2019-05-19T07:30:01.476Z,17.91
2019-05-19T07:31:01.430Z,17.86
2019-05-19T07:32:01.440Z,17.75
2019-05-19T07:33:01.406Z,17.79
2019-05-19T07:34:01.484Z,17.94
2019-05-19T07:35:01.438Z,17.96
2019-05-19T07:36:01.447Z,17.96
2019-05-19T07:37:01.367Z,18.02
2019-05-19T07:38:01.368Z,17.99
2019-05-19T07:39:01.370Z,18.02
2019-05-19T07:40:01.363Z,18.13
2019-05-19T07:41:01.342Z,18.11
2019-05-19T07:42:01.327Z,18.09
2019-05-19T07:43:01.313Z,18.15
2019-05-19T07:44:01.291Z,18.15
2019-05-19T07:45:01.321Z,18.18
2019-05-19T07:46:01.255Z,18.15
2019-05-19T07:47:01.270Z,18.13
2019-05-19T07:48:01.238Z,18.20
2019-05-19T07:49:01.251Z,18.24
2019-05-19T07:50:01.322Z,18.26
2019-05-19T07:51:01.207Z,18.26
2019-05-19T07:52:01.190Z,18.30
2019-05-19T07:53:01.204Z,18.31
2019-05-19T07:54:01.176Z,18.30
2019-05-19T07:55:01.180Z,18.43
2019-05-19T07:56:01.211Z,18.41
2019-05-19T07:57:01.133Z,18.36
2019-05-19T07:58:01.126Z,18.42
2019-05-19T07:59:01.110Z,18.49
2019-05-19T08:00:01.097Z,18.41
2019-05-19T08:01:01.115Z,18.48
2019-05-19T08:02:01.106Z,18.51
2019-05-19T08:03:01.062Z,18.56
2019-05-19T08:04:01.053Z,18.52
2019-05-19T08:05:01.050Z,18.57
2019-05-19T08:06:01.058Z,18.57
2019-05-19T08:07:01.026Z,18.67
2019-05-19T08:08:01.039Z,18.61
2019-05-19T08:09:00.995Z,18.67
2019-05-19T08:10:00.992Z,18.57
2019-05-19T08:11:01.063Z,18.61
2019-05-19T08:12:00.962Z,18.70
2019-05-19T08:13:00.967Z,18.70
2019-05-19T08:14:00.956Z,18.67
2019-05-19T08:15:00.933Z,18.76
2019-05-19T08:16:01.017Z,18.74
2019-05-19T08:17:00.906Z,18.78
2019-05-19T08:18:00.903Z,18.85
2019-05-19T08:19:00.891Z,18.81
2019-05-19T08:20:00.898Z,18.88
2019-05-19T08:21:00.918Z,18.98
2019-05-19T08:22:00.855Z,19.00
2019-05-19T08:23:00.844Z,19.08
2019-05-19T08:24:01.346Z,19.12
2019-05-19T08:25:00.822Z,19.15
2019-05-19T08:26:00.842Z,19.17
2019-05-19T08:27:00.795Z,19.20
2019-05-19T08:28:08.512Z,19.23
2019-05-19T08:29:01.773Z,19.23
2019-05-19T08:30:00.764Z,19.12
2019-05-19T08:31:00.798Z,19.32
2019-05-19T08:32:00.753Z,19.22
2019-05-19T08:33:00.730Z,19.34
2019-05-19T08:34:00.736Z,19.39
2019-05-19T08:35:00.712Z,19.34
2019-05-19T08:36:00.718Z,19.24
2019-05-19T08:37:00.690Z,19.26
2019-05-19T08:38:00.693Z,19.20
2019-05-19T08:39:00.665Z,19.19
2019-05-19T08:40:00.661Z,19.07
2019-05-19T08:41:00.714Z,19.20
2019-05-19T08:42:00.635Z,19.20
2019-05-19T08:43:00.617Z,19.22
2019-05-19T08:44:00.624Z,19.27
2019-05-19T08:45:00.599Z,19.32
2019-05-19T08:46:00.587Z,19.31
2019-05-19T08:47:00.622Z,19.34
2019-05-19T08:48:00.561Z,19.32
2019-05-19T08:49:00.561Z,19.32
2019-05-19T08:50:00.560Z,19.37
2019-05-19T08:51:00.534Z,19.38
2019-05-19T08:52:00.563Z,19.37
2019-05-19T08:53:00.546Z,19.53
2019-05-19T08:54:13.831Z,19.56
2019-05-19T08:55:01.494Z,19.47
2019-05-19T08:56:00.494Z,19.50
2019-05-19T08:57:00.486Z,19.60
2019-05-19T08:58:00.450Z,19.62
2019-05-19T08:59:00.447Z,19.63
2019-05-19T09:00:00.432Z,19.74
2019-05-19T09:01:00.426Z,19.64
2019-05-19T09:02:00.448Z,19.68
2019-05-19T09:03:00.397Z,19.71
2019-05-19T09:04:00.385Z,19.70
2019-05-19T09:05:00.372Z,19.70
2019-05-19T09:06:00.363Z,19.60
2019-05-19T09:07:00.374Z,19.60
2019-05-19T09:08:00.358Z,19.62
2019-05-19T09:09:00.330Z,19.62
2019-05-19T09:10:00.372Z,19.64
2019-05-19T09:11:00.304Z,19.67
2019-05-19T09:12:00.396Z,19.67
2019-05-19T09:13:00.356Z,19.67
2019-05-19T09:14:00.284Z,19.74
2019-05-19T09:15:00.261Z,19.77
2019-05-19T09:16:00.285Z,19.75
2019-05-19T09:17:00.280Z,19.79
2019-05-19T09:18:00.247Z,19.77
2019-05-19T09:19:00.267Z,19.75
2019-05-19T09:20:00.250Z,19.82
2019-05-19T09:21:00.223Z,19.87
2019-05-19T09:22:00.245Z,19.90
2019-05-19T09:23:00.206Z,19.87
2019-05-19T09:24:00.214Z,19.93
2019-05-19T09:25:00.174Z,19.96
2019-05-19T09:26:00.150Z,20.09
2019-05-19T09:27:00.153Z,20.05
2019-05-19T09:28:00.117Z,20.08
2019-05-19T09:29:00.132Z,20.11
2019-05-19T09:30:00.105Z,20.18
2019-05-19T09:31:00.082Z,20.19
2019-05-19T09:32:00.085Z,20.25
2019-05-19T09:33:00.091Z,20.25
2019-05-19T09:34:00.057Z,20.18
2019-05-19T09:35:00.042Z,20.22
2019-05-19T09:36:00.028Z,20.22
2019-05-19T09:37:00.025Z,20.19
2019-05-19T09:38:00.032Z,20.26
2019-05-19T09:39:00.002Z,20.22
2019-05-19T09:39:59.981Z,20.26
2019-05-19T09:40:59.977Z,20.18
2019-05-19T09:41:59.964Z,20.22
2019-05-19T09:42:59.974Z,20.27
2019-05-19T09:43:59.972Z,20.29
2019-05-19T09:44:59.927Z,20.32
2019-05-19T09:45:59.925Z,20.30
2019-05-19T09:46:59.922Z,20.37
2019-05-19T09:47:59.955Z,20.48
2019-05-19T09:48:59.910Z,20.55
2019-05-19T09:49:59.873Z,20.67
2019-05-19T09:50:59.868Z,20.73
2019-05-19T09:51:59.860Z,20.74
2019-05-19T09:52:59.875Z,20.75
2019-05-19T09:53:59.877Z,20.73
2019-05-19T09:54:59.882Z,20.75
2019-05-19T09:55:59.813Z,20.75
2019-05-19T09:56:59.964Z,20.82
2019-05-19T09:57:59.828Z,20.79
2019-05-19T09:58:59.826Z,20.86
2019-05-19T09:59:59.793Z,20.86
2019-05-19T10:00:59.768Z,20.88
2019-05-19T10:01:59.748Z,20.98
2019-05-19T10:02:59.798Z,21.00
2019-05-19T10:03:59.739Z,21.00
2019-05-19T10:04:59.713Z,21.00
2019-05-19T10:05:59.710Z,21.01
2019-05-19T10:06:59.806Z,20.97
2019-05-19T10:07:59.708Z,20.98
2019-05-19T10:08:59.718Z,20.95
2019-05-19T10:09:59.735Z,21.00
2019-05-19T10:10:59.647Z,21.07
2019-05-19T10:11:59.659Z,21.01
2019-05-19T10:12:59.724Z,21.14
2019-05-19T10:13:59.636Z,21.05
2019-05-19T10:14:59.646Z,21.01
2019-05-19T10:15:59.598Z,21.04
2019-05-19T10:16:59.581Z,21.10
2019-05-19T10:17:59.639Z,21.07
2019-05-19T10:18:59.588Z,21.05
2019-05-19T10:19:59.602Z,21.10
2019-05-19T10:20:59.570Z,21.10
2019-05-19T10:21:59.590Z,21.11
2019-05-19T10:22:59.585Z,21.23
2019-05-19T10:23:59.529Z,21.10
2019-05-19T10:25:19.973Z,21.25
2019-05-19T10:26:00.561Z,21.25
2019-05-19T10:26:59.484Z,21.22
2019-05-19T10:27:59.498Z,21.25
2019-05-19T10:28:59.495Z,21.16
2019-05-19T10:29:59.430Z,21.18
2019-05-19T10:30:59.445Z,21.11
2019-05-19T10:31:59.425Z,21.14
2019-05-19T10:32:59.433Z,21.20
2019-05-19T10:33:59.418Z,21.19
2019-05-19T10:34:59.399Z,21.30
2019-05-19T10:35:59.395Z,21.30
2019-05-19T10:36:59.361Z,21.44
2019-05-19T10:37:59.347Z,21.51
2019-05-19T10:38:59.366Z,21.47
2019-05-19T10:39:59.342Z,21.62
2019-05-19T10:40:59.316Z,21.65
2019-05-19T10:41:59.312Z,21.71
2019-05-19T10:42:59.341Z,21.75
2019-05-19T10:44:00.853Z,21.73
2019-05-19T10:44:59.265Z,21.78
2019-05-19T10:45:59.257Z,21.71
2019-05-19T10:46:59.256Z,21.71
2019-05-19T10:47:59.247Z,21.74
2019-05-19T10:48:59.299Z,21.75
2019-05-19T10:49:59.212Z,21.73
2019-05-19T10:50:59.255Z,21.69
2019-05-19T10:51:59.207Z,21.75
2019-05-19T10:52:59.182Z,21.65
2019-05-19T10:53:59.268Z,21.62
2019-05-19T10:54:59.159Z,21.62
2019-05-19T10:55:59.140Z,21.62
2019-05-19T10:56:59.143Z,21.62
2019-05-19T10:57:59.145Z,21.66
2019-05-19T10:58:59.206Z,21.63
2019-05-19T10:59:59.110Z,21.67
2019-05-19T11:00:59.108Z,21.75
2019-05-19T11:01:59.113Z,21.66
2019-05-19T11:02:59.107Z,21.74
2019-05-19T11:03:59.176Z,21.71
2019-05-19T11:04:59.051Z,21.80
2019-05-19T11:05:59.124Z,21.75
2019-05-19T11:06:59.097Z,21.77
2019-05-19T11:07:59.063Z,21.85
2019-05-19T11:08:59.105Z,21.88
2019-05-19T11:09:59.022Z,21.94
2019-05-19T11:10:59.010Z,21.97
2019-05-19T11:11:59.014Z,22.03
2019-05-19T11:12:59.012Z,22.03
2019-05-19T11:13:58.999Z,21.98
2019-05-19T11:14:58.929Z,22.13
2019-05-19T11:15:58.936Z,22.06
2019-05-19T11:16:58.942Z,22.11
2019-05-19T11:17:58.950Z,22.04
2019-05-19T11:18:58.980Z,22.21
2019-05-19T11:19:58.898Z,22.12
2019-05-19T11:20:58.863Z,22.19
2019-05-19T11:21:58.878Z,22.09
2019-05-19T11:22:58.880Z,22.21
2019-05-19T11:23:58.910Z,22.27
2019-05-19T11:24:58.875Z,22.28
2019-05-19T11:25:58.855Z,22.31
2019-05-19T11:26:58.830Z,22.30
2019-05-19T11:27:58.824Z,22.28
2019-05-19T11:28:58.798Z,22.38
2019-05-19T11:29:58.824Z,22.48
2019-05-19T11:30:58.809Z,22.43
2019-05-19T11:31:58.767Z,22.48
2019-05-19T11:32:58.734Z,22.56
2019-05-19T11:33:58.740Z,22.52
2019-05-19T11:34:58.737Z,22.58
2019-05-19T11:35:58.698Z,22.53
2019-05-19T11:36:58.735Z,22.64
2019-05-19T11:37:58.708Z,22.55
2019-05-19T11:38:58.679Z,22.61
2019-05-19T11:39:58.749Z,22.51
2019-05-19T11:40:58.642Z,22.41
2019-05-19T11:41:58.650Z,22.49
2019-05-19T11:42:58.748Z,22.56
2019-05-19T11:43:58.651Z,22.61
2019-05-19T11:44:58.650Z,22.52
2019-05-19T11:45:58.605Z,22.56
2019-05-19T11:46:58.596Z,22.64
2019-05-19T11:47:58.586Z,22.55
2019-05-19T11:48:58.578Z,22.59
2019-05-19T11:49:58.655Z,22.55
2019-05-19T11:50:58.610Z,22.56
2019-05-19T11:51:58.538Z,22.52
2019-05-19T11:52:58.504Z,22.58
2019-05-19T11:53:58.514Z,22.52
2019-05-19T11:54:58.581Z,22.53
2019-05-19T11:56:06.084Z,22.56
2019-05-19T11:56:59.559Z,22.53
2019-05-19T11:57:58.555Z,22.53
2019-05-19T11:58:58.564Z,22.59
2019-05-19T11:59:58.453Z,22.49
2019-05-19T12:00:58.498Z,22.64
2019-05-19T12:01:58.427Z,22.68
2019-05-19T12:02:58.420Z,22.73
2019-05-19T12:03:58.388Z,22.76
2019-05-19T12:04:58.418Z,22.78
2019-05-19T12:05:58.484Z,22.83
2019-05-19T12:06:58.399Z,22.78
2019-05-19T12:07:58.358Z,22.81
2019-05-19T12:08:58.399Z,22.83
2019-05-19T12:09:58.324Z,22.85
2019-05-19T12:10:58.373Z,22.89
2019-05-19T12:11:58.307Z,22.85
2019-05-19T12:12:58.302Z,22.80
2019-05-19T12:13:58.358Z,22.91
2019-05-19T12:14:58.291Z,22.93
2019-05-19T12:15:58.379Z,22.99
2019-05-19T12:16:58.507Z,23.07
2019-05-19T12:17:58.251Z,23.03
2019-05-19T12:18:58.241Z,22.98
2019-05-19T12:19:58.248Z,23.13
2019-05-19T12:20:58.267Z,23.11
2019-05-19T12:21:58.226Z,23.13
2019-05-19T12:22:58.196Z,23.25
2019-05-19T12:23:58.165Z,23.26
2019-05-19T12:24:58.172Z,23.31
2019-05-19T12:25:58.325Z,23.33
2019-05-19T12:26:58.204Z,23.34
2019-05-19T12:27:58.187Z,23.39
2019-05-19T12:28:58.111Z,23.33
2019-05-19T12:29:58.155Z,23.45
2019-05-19T12:30:58.136Z,23.39
2019-05-19T12:31:58.114Z,23.39
2019-05-19T12:32:59.393Z,23.39
2019-05-19T12:33:58.052Z,23.46
2019-05-19T12:34:58.067Z,23.44
2019-05-19T12:35:58.160Z,23.41
2019-05-19T12:36:58.088Z,23.42
2019-05-19T12:37:58.067Z,23.41
2019-05-19T12:38:58.066Z,23.45
2019-05-19T12:39:58.021Z,23.49
2019-05-19T12:40:58.163Z,23.44
2019-05-19T12:41:57.998Z,23.49
2019-05-19T12:42:58.023Z,23.49
2019-05-19T12:43:57.978Z,23.45
2019-05-19T12:44:57.960Z,23.45
2019-05-19T12:45:58.041Z,23.49
2019-05-19T12:46:58.007Z,23.46
2019-05-19T12:47:57.970Z,23.55
2019-05-19T12:48:57.971Z,23.63
2019-05-19T12:49:57.929Z,23.61
2019-05-19T12:50:57.945Z,23.81
2019-05-19T12:51:57.853Z,23.78
2019-05-19T12:52:57.886Z,23.76
2019-05-19T12:53:57.863Z,23.81